Portada
METAR-TAF:

METAR-TAF

Aeroports :

DeLand, Florida, Estats Units d'Amèrica

latitud: 29-04-01N, longitud: 081-17-02W, altitud: 24 m

Observació

L'informe es va fer fa 16 minuts, a les 05:55 UTC
Vent 6 kt del Oest/Nord-Oest
Temperatura 25°C
Humitat 94%
Pressió 1014 hPa
Visibilitat: 16.1 km
Cel clar

METAR: KDED 160555Z AUTO 30006KT 10SM CLR 25/24 A2993 RMK AO2

Hora: 02:11 (06:11 UTC)


TAF: manca

Observacions i pronòstics meteorològics de més de 4000 aeroports (METAR i TAF).

Les estacions disponibles són els punts grocs i vermells al mapa.

Posi el ratolí al punt desitjat per veure el nom de l'estació.

Feu clic per veure les observacions i els pronòstics meteorològics.

Per canviar el mapa: feu clic els botons verds amb una creu de color negre per apropar; al botó verd amb un guió per allunyar la imatge; o en les fletxes verdes per a mapes adjacents.


METAR-TAF: